Time;durP1;ratioP1;P1;durP2;ratioP2;P2;SDS_P1;SDS_P2;PMS_P1;PMS_P2;Temp;Humidity;BMP_temperature;BMP_pressure;BME280_temperature;BME280_humidity;BME280_pressure;Samples;Min_cycle;Max_cycle;Signal;HPM_P1;HPM_P2
2023/09/27 00:00:04;;;;;;;5.68;3.67;;;;;;;-145.69;73.67;52147.34;5114526;28;20541;-80
2023/09/27 00:02:32;;;;;;;8.95;3.53;;;;;;;-145.69;74.48;52147.34;5094999;28;20670;-80
2023/09/27 00:04:58;;;;;;;8.98;4.57;;;;;;;-145.69;75.23;52153.28;5100329;27;20235;-80
2023/09/27 00:07:25;;;;;;;6.63;4.28;;;;;;;-145.69;73.68;52145.34;5136045;27;20204;-81
2023/09/27 00:09:54;;;;;;;7.47;4.43;;;;;;;-145.69;74.02;52125.56;5136054;27;20228;-81
2023/09/27 00:12:21;;;;;;;9.93;4.28;;;;;;;-145.69;73.10;52163.19;5135640;27;20563;-80
2023/09/27 00:14:47;;;;;;;7.35;3.97;;;;;;;-145.69;74.77;52135.47;5131383;27;20197;-80
2023/09/27 00:17:20;;;;;;;13.10;4.85;;;;;;;-145.69;73.21;52131.50;5135440;27;20197;-80
2023/09/27 00:19:50;;;;;;;6.68;4.10;;;;;;;-145.69;73.73;52145.34;5135276;27;20229;-80
2023/09/27 00:22:17;;;;;;;7.57;4.38;;;;;;;-145.69;76.17;52145.34;5135864;27;20201;-80
2023/09/27 00:24:43;;;;;;;7.50;4.07;;;;;;;-145.69;75.47;52131.50;5121166;27;20216;-80
2023/09/27 00:27:11;;;;;;;6.60;4.60;;;;;;;-145.69;75.95;52155.25;5115095;28;20288;-81
2023/09/27 00:29:37;;;;;;;9.13;4.63;;;;;;;-145.69;75.10;52109.72;5114750;28;20197;-80
2023/09/27 00:32:08;;;;;;;5.15;3.80;;;;;;;-145.69;75.13;52167.13;5118591;27;20205;-80
2023/09/27 00:34:35;;;;;;;5.53;4.07;;;;;;;-145.69;74.54;52149.31;5134493;27;20236;-81
2023/09/27 00:37:04;;;;;;;8.35;4.60;;;;;;;-145.69;74.24;52167.13;5113778;28;20216;-80
2023/09/27 00:39:36;;;;;;;4.55;3.45;;;;;;;-145.69;74.61;52147.34;5114964;28;20253;-81
2023/09/27 00:42:04;;;;;;;4.72;3.65;;;;;;;-145.69;74.45;52153.28;5119002;27;20224;-81
2023/09/27 00:44:34;;;;;;;6.57;3.55;;;;;;;-145.69;74.52;52163.19;5126198;27;20193;-81
2023/09/27 00:47:08;;;;;;;5.13;3.55;;;;;;;-145.69;75.03;52175.06;5114909;28;20204;-80
2023/09/27 00:49:35;;;;;;;4.53;3.20;;;;;;;-145.69;73.62;52143.38;5114035;28;20209;-80
2023/09/27 00:52:03;;;;;;;4.45;2.95;;;;;;;-145.69;74.09;52139.41;5117574;27;20197;-80
2023/09/27 00:54:31;;;;;;;6.65;3.83;;;;;;;-145.69;73.67;52147.34;5134800;27;20200;-81
2023/09/27 00:57:00;;;;;;;7.20;3.70;;;;;;;-145.69;75.00;52175.06;5134931;27;20220;-80
2023/09/27 00:59:29;;;;;;;5.20;3.70;;;;;;;-145.69;74.98;52151.28;5135162;27;20201;-80
2023/09/27 01:01:57;;;;;;;6.68;3.42;;;;;;;-145.69;74.96;52173.09;5117768;27;20307;-80
2023/09/27 01:04:27;;;;;;;4.63;3.25;;;;;;;-145.69;75.00;52155.25;5115079;27;20678;-80
2023/09/27 01:06:53;;;;;;;4.00;3.13;;;;;;;-145.69;73.45;52139.41;5134431;27;20205;-80
2023/09/27 01:09:24;;;;;;;5.27;3.10;;;;;;;-145.69;72.81;52175.06;5134591;27;20207;-80
2023/09/27 01:11:53;;;;;;;3.20;2.60;;;;;;;-145.69;72.82;52177.03;5117700;27;20300;-80
2023/09/27 01:14:22;;;;;;;4.20;2.92;;;;;;;-145.69;73.87;52157.25;5114276;28;20201;-79
2023/09/27 01:16:50;;;;;;;4.50;2.93;;;;;;;-145.69;73.86;52155.25;5117915;27;20195;-80
2023/09/27 01:19:17;;;;;;;4.70;3.13;;;;;;;-145.69;75.06;52171.09;5117161;27;20710;-80
2023/09/27 01:21:43;;;;;;;4.43;2.97;;;;;;;-145.69;73.85;52173.09;5113971;27;20228;-80
2023/09/27 01:24:13;;;;;;;3.75;2.78;;;;;;;-145.69;73.35;52190.91;5113827;28;20201;-80
2023/09/27 01:26:40;;;;;;;4.85;3.22;;;;;;;-145.69;75.52;52163.19;5131770;27;20197;-80
2023/09/27 01:29:07;;;;;;;4.65;3.50;;;;;;;-145.69;76.98;52177.03;5127199;27;20492;-80
2023/09/27 01:31:33;;;;;;;4.33;3.27;;;;;;;-145.69;74.95;52153.28;5114645;27;20201;-80
2023/09/27 01:34:00;;;;;;;5.95;3.20;;;;;;;-145.69;73.99;52194.88;5113179;28;20204;-80
2023/09/27 01:36:26;;;;;;;6.07;2.63;;;;;;;-145.69;73.82;52149.31;5113653;28;20212;-81
2023/09/27 01:38:55;;;;;;;5.03;2.58;;;;;;;-145.69;73.94;52181.00;5116085;27;20209;-80
2023/09/27 01:41:23;;;;;;;3.60;2.57;;;;;;;-145.69;74.93;52147.34;5132120;27;20217;-80
2023/09/27 01:43:50;;;;;;;5.72;2.70;;;;;;;-145.69;73.52;52179.03;5133670;27;20220;-80
2023/09/27 01:46:16;;;;;;;3.40;3.00;;;;;;;-145.69;74.80;52173.09;5134348;27;20204;-81
2023/09/27 01:48:43;;;;;;;4.47;2.60;;;;;;;-145.69;74.99;52157.25;5130258;27;20193;-80
2023/09/27 01:51:09;;;;;;;5.00;3.37;;;;;;;-145.69;75.38;52157.25;5132555;27;20551;-80
2023/09/27 01:53:36;;;;;;;3.33;2.77;;;;;;;-145.69;74.21;52137.44;5134186;27;20283;-81
2023/09/27 01:56:05;;;;;;;12.97;3.67;;;;;;;-145.69;74.33;52155.25;5122028;27;20193;-80
2023/09/27 01:58:33;;;;;;;3.33;2.88;;;;;;;-145.69;73.91;52153.28;5124674;27;20200;-81
2023/09/27 02:01:00;;;;;;;3.30;2.33;;;;;;;-145.69;73.87;52194.88;5133800;27;20323;-81
2023/09/27 02:03:32;;;;;;;3.73;2.83;;;;;;;-145.69;73.08;52167.13;5133228;27;20200;-80
2023/09/27 02:05:59;;;;;;;4.27;2.93;;;;;;;-145.69;74.34;52173.09;5130916;27;20184;-80
2023/09/27 02:08:25;;;;;;;4.60;2.70;;;;;;;-145.69;74.90;52159.22;5109193;27;20197;-81
2023/09/27 02:10:52;;;;;;;3.10;2.50;;;;;;;-145.69;73.13;52190.91;5113314;28;20205;-81
2023/09/27 02:13:21;;;;;;;5.70;2.88;;;;;;;-145.69;74.02;52206.75;5113347;28;20205;-81
2023/09/27 02:15:51;;;;;;;4.00;2.97;;;;;;;-145.69;73.85;52171.09;5114108;28;20201;-81
2023/09/27 02:18:18;;;;;;;4.13;3.10;;;;;;;-145.69;73.66;52173.09;5133459;27;20309;-80
2023/09/27 02:20:47;;;;;;;4.07;2.97;;;;;;;-145.69;72.97;52163.19;5133698;27;20737;-81
2023/09/27 02:23:14;;;;;;;5.00;2.60;;;;;;;-145.69;73.87;52171.09;5133840;27;20701;-81
2023/09/27 02:25:50;;;;;;;4.53;2.83;;;;;;;-145.69;75.41;52151.28;5125028;27;20667;-81
2023/09/27 02:28:20;;;;;;;9.57;2.70;;;;;;;-145.69;73.82;52206.75;5092567;28;20198;-80
2023/09/27 02:30:48;;;;;;;3.67;2.67;;;;;;;-145.69;73.10;52210.72;5092533;28;20206;-81
2023/09/27 02:33:20;;;;;;;4.20;2.80;;;;;;;-145.69;74.07;52198.81;5092696;28;20667;-80
2023/09/27 02:35:53;;;;;;;3.50;2.47;;;;;;;-145.69;74.17;52139.41;5121384;28;20200;-80
2023/09/27 02:38:21;;;;;;;4.90;3.00;;;;;;;-145.69;74.09;52175.06;5133777;27;20193;-81
2023/09/27 02:40:48;;;;;;;3.87;2.97;;;;;;;-145.69;73.62;52186.94;5133441;27;20229;-80
2023/09/27 02:43:14;;;;;;;3.20;2.63;;;;;;;-145.69;74.29;52194.88;5103088;27;20207;-80
2023/09/27 02:45:42;;;;;;;4.47;2.80;;;;;;;-145.69;73.22;52206.75;5119724;28;20193;-81
2023/09/27 02:48:09;;;;;;;5.23;2.57;;;;;;;-145.69;72.36;52194.88;5133380;27;20192;-80
2023/09/27 02:50:38;;;;;;;6.23;2.70;;;;;;;-145.69;73.24;52202.78;5133388;27;20201;-80
2023/09/27 02:53:05;;;;;;;7.73;2.97;;;;;;;-145.69;73.45;52218.63;5128493;27;20189;-80
2023/09/27 02:55:32;;;;;;;4.53;2.97;;;;;;;-145.69;74.41;52179.03;5119381;27;20193;-81
2023/09/27 02:58:01;;;;;;;4.17;2.97;;;;;;;-145.69;73.72;52151.28;5137096;27;20200;-80
2023/09/27 03:00:30;;;;;;;6.97;2.80;;;;;;;-145.69;73.39;52184.97;5137022;27;20283;-81
2023/09/27 03:02:57;;;;;;;4.73;2.63;;;;;;;-145.69;75.36;52181.00;5128788;27;20705;-80
2023/09/27 03:05:24;;;;;;;8.63;3.07;;;;;;;-145.69;75.68;52214.66;5136945;27;20197;-81
2023/09/27 03:07:52;;;;;;;5.63;3.07;;;;;;;-145.69;74.31;52157.25;5135549;27;20205;-81
2023/09/27 03:10:19;;;;;;;3.63;2.57;;;;;;;-145.69;73.75;52163.19;5136761;27;20201;-81
2023/09/27 03:12:51;;;;;;;5.50;2.73;;;;;;;-145.69;73.62;52188.91;5136031;27;20728;-80
2023/09/27 03:15:19;;;;;;;4.20;3.13;;;;;;;-145.69;73.18;52184.97;5108924;28;20275;-80
2023/09/27 03:17:45;;;;;;;9.70;2.63;;;;;;;-145.69;73.25;52179.03;5115228;28;20197;-81
2023/09/27 03:20:16;;;;;;;4.23;2.47;;;;;;;-145.69;73.25;52163.19;5116282;27;20201;-81
2023/09/27 03:22:42;;;;;;;7.00;3.07;;;;;;;-145.69;72.28;52175.06;5115638;28;20232;-81
2023/09/27 03:25:18;;;;;;;9.80;3.20;;;;;;;-145.69;73.45;52161.19;5119509;27;20283;-81
2023/09/27 03:27:45;;;;;;;3.70;2.33;;;;;;;-145.69;72.25;52171.09;5127311;27;20205;-80
2023/09/27 03:30:18;;;;;;;4.10;2.87;;;;;;;-145.69;71.93;52196.84;5115848;28;20256;-81
2023/09/27 03:32:48;;;;;;;3.80;2.60;;;;;;;-145.69;72.30;52198.81;5116029;28;20683;-81
2023/09/27 03:35:19;;;;;;;4.30;2.90;;;;;;;-145.69;71.78;52171.09;5135800;27;20828;-80
2023/09/27 03:37:46;;;;;;;5.13;2.90;;;;;;;-145.69;72.50;52202.78;5136440;27;20193;-81
2023/09/27 03:40:14;;;;;;;6.40;3.20;;;;;;;-145.69;73.71;52177.03;5135746;27;20201;-80
2023/09/27 03:42:43;;;;;;;6.73;3.10;;;;;;;-145.69;72.77;52167.13;5123386;27;20229;-80
2023/09/27 03:45:10;;;;;;;3.87;2.43;;;;;;;-145.69;72.03;52202.78;5117986;27;20193;-81
2023/09/27 03:47:44;;;;;;;3.80;2.73;;;;;;;-145.69;71.57;52206.75;5122303;27;20203;-81
2023/09/27 03:50:12;;;;;;;6.97;3.07;;;;;;;-145.69;73.35;52206.75;5136246;27;20204;-80
2023/09/27 03:52:41;;;;;;;10.60;3.27;;;;;;;-145.69;74.08;52177.03;5124637;27;20198;-80
2023/09/27 03:55:10;;;;;;;5.67;3.23;;;;;;;-145.69;74.39;52186.94;5115588;28;20205;-80
2023/09/27 03:57:41;;;;;;;6.53;3.27;;;;;;;-145.69;72.67;52171.09;5115146;28;20666;-80
2023/09/27 04:00:12;;;;;;;9.20;3.73;;;;;;;-145.69;72.81;52163.19;5101350;28;20202;-80
2023/09/27 04:02:40;;;;;;;6.13;3.20;;;;;;;-145.69;72.49;52238.44;5117071;27;20220;-80
2023/09/27 04:05:07;;;;;;;7.67;3.03;;;;;;;-145.69;72.57;52179.03;5136029;27;20224;-80
2023/09/27 04:07:34;;;;;;;4.97;2.90;;;;;;;-145.69;72.51;52175.06;5135698;27;20665;-80
2023/09/27 04:10:01;;;;;;;4.53;3.03;;;;;;;-145.69;73.43;52181.00;5133772;27;20253;-80
2023/09/27 04:12:27;;;;;;;3.90;2.70;;;;;;;-145.69;74.56;52179.03;5115303;28;20289;-80
2023/09/27 04:14:57;;;;;;;7.97;3.20;;;;;;;-145.69;74.32;52181.00;5114814;28;20209;-81
2023/09/27 04:17:26;;;;;;;6.47;3.27;;;;;;;-145.69;73.37;52190.91;5120026;27;20261;-80
2023/09/27 04:19:53;;;;;;;11.97;3.20;;;;;;;-145.69;73.72;52179.03;5134437;27;20288;-81
2023/09/27 04:22:21;;;;;;;5.23;3.30;;;;;;;-145.69;74.16;52190.91;5115079;28;20229;-81
2023/09/27 04:24:48;;;;;;;6.00;3.30;;;;;;;-145.69;74.13;52165.16;5115302;28;20204;-80
2023/09/27 04:27:18;;;;;;;4.97;3.17;;;;;;;-145.69;74.24;52167.13;5115847;27;20204;-81
2023/09/27 04:29:45;;;;;;;6.17;3.27;;;;;;;-145.69;72.88;52192.88;5128149;27;20295;-80
2023/09/27 04:32:13;;;;;;;5.53;2.87;;;;;;;-145.69;72.95;52188.91;5135370;27;20201;-80
2023/09/27 04:34:42;;;;;;;4.30;2.80;;;;;;;-145.69;71.72;52173.09;5135566;27;20662;-80
2023/09/27 04:37:10;;;;;;;4.77;3.37;;;;;;;-145.69;73.19;52186.94;5135233;27;20200;-81
2023/09/27 04:39:39;;;;;;;7.23;3.27;;;;;;;-145.69;73.33;52186.94;5133700;27;20254;-81
2023/09/27 04:42:07;;;;;;;4.03;2.90;;;;;;;-145.69;71.74;52222.59;5135527;27;20248;-80
2023/09/27 04:44:34;;;;;;;4.90;3.13;;;;;;;-145.69;73.62;52190.91;5116392;27;20199;-81
2023/09/27 04:47:00;;;;;;;5.83;3.20;;;;;;;-145.69;73.71;52186.94;5094149;28;20220;-81
2023/09/27 04:49:28;;;;;;;6.00;3.47;;;;;;;-145.69;74.14;52194.88;5109087;27;20193;-81
2023/09/27 04:51:55;;;;;;;6.87;3.47;;;;;;;-145.69;74.71;52226.53;5135088;27;20215;-81
2023/09/27 04:54:26;;;;;;;5.30;3.30;;;;;;;-145.69;74.37;52184.97;5132296;27;20671;-81
2023/09/27 04:56:53;;;;;;;7.33;3.33;;;;;;;-145.69;74.13;52212.69;5114767;28;20242;-81
2023/09/27 04:59:20;;;;;;;6.50;3.40;;;;;;;-145.69;74.44;52181.00;5114436;27;20201;-81
2023/09/27 05:01:46;;;;;;;7.63;3.67;;;;;;;-145.69;74.86;52186.94;5114546;28;20229;-81
2023/09/27 05:04:17;;;;;;;7.40;3.60;;;;;;;-145.69;74.84;52194.88;5114267;28;20255;-80
2023/09/27 05:06:44;;;;;;;5.67;3.50;;;;;;;-145.69;74.32;52216.66;5114380;28;20247;-82
2023/09/27 05:09:13;;;;;;;6.80;3.70;;;;;;;-145.69;74.79;52188.91;5132447;27;20197;-80
2023/09/27 05:11:40;;;;;;;7.33;4.00;;;;;;;-145.69;74.31;52179.03;5134444;27;20208;-81
2023/09/27 05:14:10;;;;;;;8.27;3.70;;;;;;;-145.69;74.14;52175.06;5134757;27;20207;-82
2023/09/27 05:16:37;;;;;;;6.40;3.47;;;;;;;-145.69;73.99;52190.91;5134328;27;20212;-81
2023/09/27 05:19:06;;;;;;;9.20;3.37;;;;;;;-145.69;74.91;52196.84;5129975;27;20228;-81
2023/09/27 05:21:40;;;;;;;9.33;3.70;;;;;;;-145.69;74.49;52190.91;5134448;27;20287;-81
2023/09/27 05:24:09;;;;;;;7.33;3.83;;;;;;;-145.69;74.78;52208.72;5134500;27;20659;-80
2023/09/27 05:26:37;;;;;;;5.43;3.70;;;;;;;-145.69;74.04;52192.88;5134754;27;20199;-81
2023/09/27 05:29:13;;;;;;;6.43;3.40;;;;;;;-145.69;73.14;52198.81;5118345;27;20198;-80
2023/09/27 05:31:40;;;;;;;9.73;4.03;;;;;;;-145.69;73.89;52186.94;5113390;28;20201;-81
2023/09/27 05:34:07;;;;;;;5.87;3.80;;;;;;;-145.69;73.24;52194.88;5113742;28;20205;-81
2023/09/27 05:36:33;;;;;;;6.83;3.70;;;;;;;-145.69;73.91;52214.66;5113975;28;20588;-81
2023/09/27 05:41:43;;;;;;;6.77;3.97;;;;;;;-145.69;74.75;52200.81;5130654;27;20279;-81
2023/09/27 05:44:20;;;;;;;6.67;4.13;;;;;;;-145.69;74.73;52202.78;5133862;27;20559;-81
2023/09/27 05:46:48;;;;;;;6.70;3.77;;;;;;;-145.69;74.13;52179.03;5125167;27;20201;-81
2023/09/27 05:49:15;;;;;;;5.77;3.30;;;;;;;-145.69;73.33;52190.91;5113526;28;20197;-81
2023/09/27 05:51:44;;;;;;;7.43;3.03;;;;;;;-145.69;73.82;52190.91;5113658;28;20245;-81
2023/09/27 05:54:11;;;;;;;4.60;3.20;;;;;;;-145.69;74.37;52192.88;5124424;27;20650;-81
2023/09/27 05:56:37;;;;;;;4.13;3.10;;;;;;;-145.69;74.47;52204.75;5124782;27;20698;-81
2023/09/27 05:59:08;;;;;;;7.80;5.35;;;;;;;-145.69;77.67;52202.78;5132895;27;20495;-82
2023/09/27 06:01:35;;;;;;;5.97;3.95;;;;;;;-145.69;76.63;52179.03;5134091;27;20200;-82
2023/09/27 06:04:04;;;;;;;8.40;4.47;;;;;;;-145.69;75.80;52177.03;5133272;27;20710;-81
2023/09/27 06:06:31;;;;;;;5.23;3.40;;;;;;;-145.69;75.93;52218.63;5111749;28;20660;-81
2023/09/27 06:08:58;;;;;;;6.17;3.83;;;;;;;-145.69;76.24;52186.94;5113163;28;20205;-81
2023/09/27 06:11:25;;;;;;;6.57;4.47;;;;;;;-145.69;75.71;52206.75;5113258;28;20232;-81
2023/09/27 06:13:54;;;;;;;7.47;3.90;;;;;;;-145.69;75.20;52171.09;5113164;28;20216;-81
2023/09/27 06:16:22;;;;;;;6.27;3.63;;;;;;;-145.69;75.51;52175.06;5130194;28;20224;-81
2023/09/27 06:18:49;;;;;;;6.73;3.93;;;;;;;-145.69;75.84;52190.91;5133521;27;20687;-81
2023/09/27 06:21:18;;;;;;;5.25;3.80;;;;;;;-145.69;75.32;52210.72;5133439;27;20239;-81
2023/09/27 06:23:46;;;;;;;7.30;3.70;;;;;;;-145.69;75.71;52196.84;5133716;27;20229;-81
2023/09/27 06:26:15;;;;;;;6.03;4.10;;;;;;;-145.69;76.09;52155.25;5119680;27;20193;-81
2023/09/27 06:28:42;;;;;;;5.60;3.80;;;;;;;-145.69;75.62;52173.09;5112932;28;20203;-81
2023/09/27 06:31:13;;;;;;;6.60;3.67;;;;;;;-145.69;75.45;52167.13;5116752;28;20197;-81
2023/09/27 06:33:46;;;;;;;6.33;3.97;;;;;;;-145.69;74.40;52175.06;5117539;28;20212;-81
2023/09/27 06:36:15;;;;;;;9.00;3.70;;;;;;;-145.69;74.99;52129.50;5128799;27;20271;-81
2023/09/27 06:38:41;;;;;;;4.95;3.28;;;;;;;-145.69;75.22;52175.06;5117183;28;20594;-81
2023/09/27 06:41:08;;;;;;;5.13;3.47;;;;;;;-145.69;75.30;52167.13;5116817;28;20197;-81
2023/09/27 06:43:35;;;;;;;5.57;3.13;;;;;;;-145.69;74.82;52194.88;5117097;28;20217;-81
2023/09/27 06:46:10;;;;;;;6.25;3.75;;;;;;;-145.69;75.04;52175.06;5127763;27;20207;-81
2023/09/27 06:48:36;;;;;;;5.53;3.93;;;;;;;-145.69;75.65;52161.19;5112646;27;20596;-81
2023/09/27 06:51:05;;;;;;;4.75;3.35;;;;;;;-145.69;75.90;52155.25;5137224;27;20201;-81
2023/09/27 06:53:32;;;;;;;6.40;3.92;;;;;;;-145.69;76.08;52181.00;5133687;27;20636;-80
2023/09/27 06:56:02;;;;;;;5.60;3.97;;;;;;;-145.69;75.50;52190.91;5116801;28;20202;-81
2023/09/27 06:58:29;;;;;;;8.95;4.38;;;;;;;-145.69;75.23;52179.03;5116745;28;20223;-81
2023/09/27 07:00:59;;;;;;;6.60;3.92;;;;;;;-145.69;75.12;52145.34;5116701;28;20220;-81
2023/09/27 07:03:33;;;;;;;7.55;3.83;;;;;;;-145.69;75.38;52163.19;5118619;27;20221;-82
2023/09/27 07:06:01;;;;;;;5.47;3.72;;;;;;;-145.69;75.27;52155.25;5137240;27;20200;-81
2023/09/27 07:08:30;;;;;;;5.35;3.85;;;;;;;-145.69;74.99;52147.34;5120126;27;20537;-81
2023/09/27 07:11:04;;;;;;;4.38;3.25;;;;;;;-145.69;74.92;52155.25;5116814;28;20228;-81
2023/09/27 07:13:30;;;;;;;5.38;3.10;;;;;;;-145.69;75.50;52145.34;5118962;27;20276;-81
2023/09/27 07:16:03;;;;;;;4.03;3.25;;;;;;;-145.69;75.56;52149.31;5128644;27;20220;-81
2023/09/27 07:18:29;;;;;;;6.47;3.67;;;;;;;-145.69;76.04;52163.19;5116107;28;20223;-81
2023/09/27 07:20:56;;;;;;;5.03;3.60;;;;;;;-145.69;75.94;52210.72;5116391;27;20208;-80
2023/09/27 07:23:23;;;;;;;4.95;3.20;;;;;;;-145.69;75.92;52157.25;5130785;27;20714;-81
2023/09/27 07:25:57;;;;;;;5.72;3.17;;;;;;;-145.69;76.19;52163.19;5136874;27;20201;-81
2023/09/27 07:28:24;;;;;;;5.55;3.30;;;;;;;-145.69;75.87;52151.28;5136613;27;20408;-81
2023/09/27 07:30:52;;;;;;;6.78;3.00;;;;;;;-145.69;76.01;52153.28;5136781;27;20211;-80
2023/09/27 07:33:19;;;;;;;7.25;3.35;;;;;;;-145.69;76.07;52113.66;5122224;27;20250;-81
2023/09/27 07:35:52;;;;;;;3.65;2.85;;;;;;;-145.69;75.97;52147.34;5116417;28;20209;-81
2023/09/27 07:38:21;;;;;;;5.53;3.17;;;;;;;-145.69;75.81;52147.34;5115724;28;20197;-80
2023/09/27 07:40:47;;;;;;;3.97;3.03;;;;;;;-145.69;76.11;52135.47;5116118;28;20197;-80
2023/09/27 07:43:16;;;;;;;4.65;3.30;;;;;;;-145.69;76.17;52131.50;5115478;28;20225;-81
2023/09/27 07:45:47;;;;;;;5.95;3.80;;;;;;;-145.69;76.21;52151.28;5120855;27;20612;-80
2023/09/27 07:48:13;;;;;;;5.57;3.35;;;;;;;-145.69;76.21;52135.47;5136728;27;20204;-81
2023/09/27 07:50:40;;;;;;;3.47;3.05;;;;;;;-145.69;76.25;52099.81;5131023;27;20280;-80
2023/09/27 07:53:08;;;;;;;5.30;3.50;;;;;;;-145.69;76.18;52143.38;5117755;27;20193;-80
2023/09/27 07:55:43;;;;;;;5.20;3.28;;;;;;;-145.69;75.50;52135.47;5104058;27;20202;-80
2023/09/27 07:58:12;;;;;;;6.13;3.53;;;;;;;-145.69;76.40;52091.88;5095743;28;20224;-80
2023/09/27 08:00:40;;;;;;;5.85;3.35;;;;;;;-145.69;76.80;52119.63;5105330;27;20195;-81
2023/09/27 08:03:07;;;;;;;4.28;3.40;;;;;;;-145.69;76.76;52111.69;5122574;27;20239;-80
2023/09/27 08:05:42;;;;;;;3.88;3.20;;;;;;;-145.69;77.20;52129.50;5115690;28;20205;-80
2023/09/27 08:08:09;;;;;;;4.35;3.58;;;;;;;-145.69;77.61;52107.72;5115444;28;20233;-80
2023/09/27 08:10:36;;;;;;;4.38;3.45;;;;;;;-145.69;77.30;52135.47;5133385;27;20600;-80
2023/09/27 08:13:04;;;;;;;5.20;3.50;;;;;;;-145.69;77.71;52107.72;5136052;27;20196;-81
2023/09/27 08:15:30;;;;;;;5.43;3.72;;;;;;;-145.69;77.36;52111.69;5135899;27;20200;-81
2023/09/27 08:17:58;;;;;;;5.50;3.88;;;;;;;-145.69;75.38;52107.72;5135671;27;20239;-81
2023/09/27 08:20:25;;;;;;;8.70;3.80;;;;;;;-145.69;76.69;52113.66;5119204;27;20201;-81
2023/09/27 08:22:51;;;;;;;7.10;4.13;;;;;;;-145.69;73.75;52085.94;5115125;27;20217;-81
2023/09/27 08:25:18;;;;;;;4.45;3.63;;;;;;;-145.69;73.99;52115.66;5115468;28;20201;-80
2023/09/27 08:27:50;;;;;;;5.40;3.65;;;;;;;-145.69;73.25;52111.69;5116527;27;20200;-80
2023/09/27 08:30:17;;;;;;;5.18;3.50;;;;;;;-145.69;73.15;52107.72;5135983;27;20207;-80
2023/09/27 08:32:44;;;;;;;7.80;3.55;;;;;;;-145.69;72.50;52091.88;5130178;27;20640;-81
2023/09/27 08:35:11;;;;;;;7.57;3.30;;;;;;;-145.69;73.99;52080.00;5123135;27;20204;-80
2023/09/27 08:37:38;;;;;;;7.88;2.95;;;;;;;-145.69;69.69;52068.13;5129414;27;20682;-81
2023/09/27 08:40:07;;;;;;;5.25;2.92;;;;;;;-145.69;73.20;52095.84;5115132;28;20205;-80
2023/09/27 08:42:34;;;;;;;5.68;3.10;;;;;;;-145.69;71.88;52135.47;5114759;28;20262;-81
2023/09/27 08:45:01;;;;;;;4.30;2.83;;;;;;;-145.69;72.76;52078.03;5114989;28;20202;-80
2023/09/27 08:47:30;;;;;;;4.25;2.90;;;;;;;-145.69;71.59;52099.81;5118995;27;20197;-81
2023/09/27 08:49:58;;;;;;;4.88;3.17;;;;;;;-145.69;67.23;52083.97;5135280;27;20211;-81
2023/09/27 08:52:26;;;;;;;4.43;3.00;;;;;;;-145.69;67.01;52087.94;5135080;27;20292;-81
2023/09/27 08:54:53;;;;;;;3.72;2.38;;;;;;;-145.69;64.74;52101.78;5132642;27;20228;-81
2023/09/27 08:57:21;;;;;;;4.70;2.45;;;;;;;-145.69;69.48;52091.88;5129531;27;20227;-78
2023/09/27 08:59:48;;;;;;;3.90;2.58;;;;;;;-145.69;65.32;52078.03;5131853;27;20189;-78
2023/09/27 09:02:14;;;;;;;4.40;2.38;;;;;;;-145.69;66.95;52091.88;5124848;27;20188;-78
2023/09/27 09:04:42;;;;;;;5.53;2.35;;;;;;;-145.69;63.04;52089.91;5122418;27;20704;-78
2023/09/27 09:07:08;;;;;;;3.92;2.65;;;;;;;-145.69;65.17;52080.00;5124715;27;20197;-78
2023/09/27 09:09:39;;;;;;;6.03;2.13;;;;;;;-145.69;63.67;52074.06;5116077;27;20206;-79
2023/09/27 09:12:09;;;;;;;3.00;1.83;;;;;;;-145.69;61.28;52082.00;5093276;28;20194;-78
2023/09/27 09:14:44;;;;;;;4.68;2.05;;;;;;;-145.69;60.89;52087.94;5107665;27;20197;-82
2023/09/27 09:17:19;;;;;;;2.33;1.88;;;;;;;-145.69;62.43;52078.03;5114285;27;20190;-81
2023/09/27 09:20:17;;;;;;;8.40;2.00;;;;;;;-145.69;59.61;52052.28;5114082;28;20224;-82
2023/09/27 09:22:49;;;;;;;2.63;1.83;;;;;;;-145.69;60.49;52046.34;5097838;28;20680;-81
2023/09/27 09:25:26;;;;;;;3.58;1.70;;;;;;;-145.69;59.65;52014.66;5106733;27;20190;-78
2023/09/27 09:28:07;;;;;;;4.28;1.90;;;;;;;-145.69;60.67;52040.41;5114037;28;20205;-78
2023/09/27 09:30:35;;;;;;;4.10;1.77;;;;;;;-145.69;60.61;52028.53;5106672;28;20243;-82
2023/09/27 09:33:03;;;;;;;2.35;1.67;;;;;;;-145.69;59.44;52068.13;5094016;28;20194;-81
2023/09/27 09:35:31;;;;;;;3.38;1.95;;;;;;;-145.69;56.97;52056.25;5118881;27;20197;-79
2023/09/27 09:37:59;;;;;;;5.72;1.75;;;;;;;-145.69;55.21;52072.09;5122060;27;20250;-78
2023/09/27 09:40:26;;;;;;;2.55;1.70;;;;;;;-145.69;57.08;52042.38;5115531;28;20201;-79
2023/09/27 09:42:53;;;;;;;3.55;1.70;;;;;;;-145.69;56.69;52056.25;5113781;28;20202;-79
2023/09/27 09:45:20;;;;;;;1.83;1.52;;;;;;;-145.69;56.08;52014.66;5113745;27;20190;-79
2023/09/27 09:47:47;;;;;;;3.80;1.80;;;;;;;-145.69;53.57;52018.63;5093498;28;20251;-80
2023/09/27 09:50:16;;;;;;;4.68;1.60;;;;;;;-145.69;54.22;52032.47;5097890;28;20251;-81
2023/09/27 09:52:54;;;;;;;2.22;1.65;;;;;;;-145.69;53.55;52056.25;5102127;28;20194;-80
2023/09/27 09:55:23;;;;;;;2.20;1.60;;;;;;;-145.69;53.32;52032.47;5117472;27;20223;-83
2023/09/27 09:57:56;;;;;;;2.60;1.60;;;;;;;-145.69;51.51;52010.69;5139061;27;20200;-81
2023/09/27 10:00:27;;;;;;;3.33;1.30;;;;;;;-145.69;51.98;52028.53;5137999;27;20540;-80
2023/09/27 10:03:01;;;;;;;4.10;1.42;;;;;;;-145.69;51.43;52012.69;5137803;27;20668;-82
2023/09/27 10:05:33;;;;;;;4.18;1.52;;;;;;;-145.69;50.12;52006.75;5135518;27;20192;-81
2023/09/27 10:08:00;;;;;;;2.00;1.48;;;;;;;-145.69;50.30;52040.41;5136354;27;20208;-80
2023/09/27 10:10:28;;;;;;;3.05;1.52;;;;;;;-145.69;48.94;52022.59;5139892;27;20626;-81
2023/09/27 10:12:58;;;;;;;2.38;1.30;;;;;;;-145.69;49.06;51986.94;5143376;27;20204;-80
2023/09/27 10:15:26;;;;;;;1.98;1.38;;;;;;;-145.69;49.05;52014.66;5138356;27;20280;-80
2023/09/27 10:17:52;;;;;;;2.28;1.20;;;;;;;-145.69;49.01;52040.41;5138207;27;20200;-80
2023/09/27 10:20:22;;;;;;;2.63;1.52;;;;;;;-145.69;48.19;52020.59;5140359;27;20192;-81
2023/09/27 10:22:50;;;;;;;3.25;1.27;;;;;;;-145.69;47.71;52018.63;5138625;27;20225;-80
2023/09/27 10:25:34;;;;;;;2.45;1.40;;;;;;;-145.69;45.51;52016.66;5139381;27;20224;-80
2023/09/27 10:28:09;;;;;;;2.17;1.40;;;;;;;-145.69;46.05;52016.66;5140834;27;20653;-82
2023/09/27 10:31:12;;;;;;;8.02;2.10;;;;;;;-145.69;45.98;51981.00;5135963;27;20200;-81
2023/09/27 10:33:39;;;;;;;3.13;1.48;;;;;;;-145.69;46.19;51984.97;5123396;28;20640;-81
2023/09/27 10:36:30;;;;;;;3.17;1.23;;;;;;;-145.69;45.10;51981.00;5123931;28;20260;-81
2023/09/27 10:39:05;;;;;;;4.43;1.38;;;;;;;-145.69;43.63;51992.88;5109244;28;20207;-80
2023/09/27 10:41:48;;;;;;;4.80;1.15;;;;;;;-145.69;42.83;52004.75;5138742;27;20642;-79
2023/09/27 10:44:29;;;;;;;1.58;1.30;;;;;;;-145.69;42.69;51990.91;5138180;27;20226;-80
2023/09/27 10:46:56;;;;;;;3.33;1.35;;;;;;;-145.69;43.17;51988.91;5112724;27;20198;-80
2023/09/27 10:49:25;;;;;;;2.05;1.38;;;;;;;-145.69;44.07;51992.88;5114564;28;20596;-81
2023/09/27 10:51:54;;;;;;;1.48;0.95;;;;;;;-145.69;41.39;51981.00;5133002;27;20194;-80
2023/09/27 10:54:24;;;;;;;1.95;1.30;;;;;;;-145.69;41.30;51981.00;5104768;28;20657;-81
2023/09/27 10:56:53;;;;;;;2.08;1.40;;;;;;;-145.69;41.43;51988.91;5108642;28;20198;-82
2023/09/27 10:59:24;;;;;;;3.92;1.48;;;;;;;-145.69;43.30;52012.69;5115018;28;20197;-82
2023/09/27 11:01:51;;;;;;;2.20;1.40;;;;;;;-145.69;42.13;51969.13;5118004;28;20193;-81
2023/09/27 11:04:22;;;;;;;1.35;1.02;;;;;;;-145.69;41.44;51971.09;5116348;28;20229;-82
2023/09/27 11:06:56;;;;;;;2.70;1.00;;;;;;;-145.69;41.08;51947.34;5115656;27;20590;-81
2023/09/27 11:09:23;;;;;;;1.67;1.10;;;;;;;-145.69;41.11;51981.00;5131605;28;20201;-80
2023/09/27 11:11:51;;;;;;;4.30;1.20;;;;;;;-145.69;42.17;51959.22;5112917;27;20201;-81
2023/09/27 11:14:32;;;;;;;1.73;1.00;;;;;;;-145.69;40.49;51986.94;5094263;28;20289;-81
2023/09/27 11:17:14;;;;;;;4.28;0.95;;;;;;;-145.69;39.88;51965.16;5095658;28;20715;-81
2023/09/27 11:19:41;;;;;;;1.35;1.00;;;;;;;-145.69;39.88;51949.31;5116999;27;20637;-81
2023/09/27 11:22:07;;;;;;;2.03;1.30;;;;;;;-145.69;40.00;51984.97;5117282;27;20637;-80
2023/09/27 11:24:38;;;;;;;4.68;1.65;;;;;;;-145.69;41.12;51973.06;5116254;28;20225;-81
2023/09/27 11:27:05;;;;;;;2.47;1.45;;;;;;;-145.69;40.26;51990.91;5115982;28;20229;-79